Terminal Aerodrome Forecast
Issued by NWS Billings, MT

Home | Current Version | Previous Version | Text Only | Print | Product List | Glossary On
Versions: 1 2 3 4 5 6 7 8 9 10 11 12 13 14 15 16 17 18 19
000
FTUS45 KBYZ 282337
TAFMLS
TAF
KMLS 282337Z 2900/2924 05008KT P6SM VCTS SCT050 BKN080CB BKN120
     FM290300 09006KT P6SM BKN100
     FM291200 VRB05KT P6SM FEW100=

USA.gov is the U.S. government's official web portal to all federal, state and local government web resources and services.